createdAt,value
2022-10-22T00:01:56.991Z,5.07
2022-10-22T00:04:25.567Z,5.40
2022-10-22T00:06:52.810Z,5.00
2022-10-22T00:09:19.937Z,5.40
2022-10-22T00:11:47.087Z,5.87
2022-10-22T00:14:14.320Z,5.70
2022-10-22T00:16:41.426Z,5.50
2022-10-22T00:19:08.604Z,5.30
2022-10-22T00:21:37.130Z,5.30
2022-10-22T00:24:04.444Z,5.30
2022-10-22T00:26:31.630Z,5.77
2022-10-22T00:28:58.721Z,5.40
2022-10-22T00:31:25.856Z,5.50
2022-10-22T00:33:52.999Z,6.27
2022-10-22T00:36:20.118Z,5.33
2022-10-22T00:38:48.617Z,6.40
2022-10-22T00:41:15.776Z,5.67
2022-10-22T00:43:56.421Z,5.53
2022-10-22T00:46:23.530Z,5.50
2022-10-22T00:48:51.150Z,5.27
2022-10-22T00:51:19.254Z,5.20
2022-10-22T00:53:47.983Z,4.60
2022-10-22T00:56:16.449Z,5.27
2022-10-22T00:58:45.160Z,4.77
2022-10-22T01:01:14.513Z,5.60
2022-10-22T01:03:41.677Z,5.10
2022-10-22T01:06:08.800Z,5.80
2022-10-22T01:08:42.041Z,4.67
2022-10-22T01:11:15.112Z,5.73
2022-10-22T01:13:49.812Z,5.60
2022-10-22T01:16:19.792Z,5.80
2022-10-22T01:18:49.473Z,5.10
2022-10-22T01:21:23.667Z,6.27
2022-10-22T01:24:04.637Z,5.70
2022-10-22T01:26:36.487Z,4.93
2022-10-22T01:29:07.774Z,5.50
2022-10-22T01:31:38.765Z,4.50
2022-10-22T01:34:06.948Z,4.53
2022-10-22T01:36:35.290Z,4.60
2022-10-22T01:39:02.839Z,5.40
2022-10-22T01:41:30.244Z,5.10
2022-10-22T01:43:57.477Z,4.97
2022-10-22T01:46:27.592Z,4.07
2022-10-22T01:49:01.610Z,5.00
2022-10-22T01:51:35.407Z,6.27
2022-10-22T01:54:05.550Z,5.20
2022-10-22T01:56:38.319Z,4.77
2022-10-22T01:59:08.370Z,4.73
2022-10-22T02:01:42.169Z,4.83
2022-10-22T02:04:13.160Z,4.90
2022-10-22T02:06:42.256Z,5.03
2022-10-22T02:09:10.583Z,4.83
2022-10-22T02:11:38.502Z,4.80
2022-10-22T02:14:06.104Z,4.93
2022-10-22T02:16:35.239Z,4.90
2022-10-22T02:19:07.275Z,4.70
2022-10-22T02:21:34.396Z,4.60
2022-10-22T02:24:01.718Z,4.90
2022-10-22T02:26:32.230Z,5.20
2022-10-22T02:29:04.025Z,5.90
2022-10-22T02:31:32.949Z,5.67
2022-10-22T02:34:03.492Z,4.70
2022-10-22T02:36:32.304Z,5.30
2022-10-22T02:38:59.810Z,5.23
2022-10-22T02:41:27.299Z,5.00
2022-10-22T02:43:55.468Z,4.93
2022-10-22T02:46:22.936Z,4.70
2022-10-22T02:48:50.010Z,5.40
2022-10-22T02:51:17.206Z,5.13
2022-10-22T02:53:45.766Z,5.30
2022-10-22T02:56:12.921Z,5.57
2022-10-22T02:58:39.981Z,5.10
2022-10-22T03:01:07.120Z,5.80
2022-10-22T03:03:34.247Z,5.20
2022-10-22T03:06:01.359Z,7.37
2022-10-22T03:08:28.547Z,6.00
2022-10-22T03:10:57.022Z,6.07
2022-10-22T03:13:24.116Z,6.43
2022-10-22T03:15:51.344Z,5.87
2022-10-22T03:18:18.783Z,5.37
2022-10-22T03:20:45.869Z,5.70
2022-10-22T03:23:14.895Z,6.23
2022-10-22T03:25:42.859Z,6.53
2022-10-22T03:28:13.778Z,6.50
2022-10-22T03:30:40.845Z,6.50
2022-10-22T03:33:07.960Z,6.20
2022-10-22T03:35:38.554Z,6.30
2022-10-22T03:38:05.620Z,6.70
2022-10-22T03:40:32.752Z,6.43
2022-10-22T03:42:59.880Z,7.10
2022-10-22T03:45:28.406Z,6.53
2022-10-22T03:47:55.534Z,5.90
2022-10-22T03:50:22.637Z,6.67
2022-10-22T03:52:49.729Z,6.13
2022-10-22T03:55:17.149Z,6.77
2022-10-22T03:57:44.222Z,7.20
2022-10-22T04:00:11.552Z,5.90
2022-10-22T04:02:39.992Z,5.80
2022-10-22T04:05:07.689Z,6.80
2022-10-22T04:07:34.924Z,7.10
2022-10-22T04:10:02.089Z,7.13
2022-10-22T04:12:29.245Z,7.67
2022-10-22T04:14:56.322Z,6.57
2022-10-22T04:17:23.403Z,6.67
2022-10-22T04:19:51.811Z,7.33
2022-10-22T04:22:18.907Z,6.50
2022-10-22T04:24:46.038Z,6.43
2022-10-22T04:27:13.190Z,6.57
2022-10-22T04:29:40.294Z,7.60
2022-10-22T04:32:07.394Z,6.97
2022-10-22T04:34:34.469Z,7.40
2022-10-22T04:37:02.992Z,7.00
2022-10-22T04:39:30.087Z,6.80
2022-10-22T04:41:57.190Z,7.10
2022-10-22T04:44:24.318Z,7.80
2022-10-22T04:46:51.549Z,7.90
2022-10-22T04:49:18.693Z,7.83
2022-10-22T04:51:45.758Z,7.97
2022-10-22T04:54:15.068Z,7.30
2022-10-22T04:56:42.578Z,8.50
2022-10-22T04:59:11.252Z,7.67
2022-10-22T05:01:42.711Z,7.37
2022-10-22T05:04:12.016Z,8.07
2022-10-22T05:06:39.080Z,8.00
2022-10-22T05:09:07.226Z,7.47
2022-10-22T05:11:36.747Z,7.90
2022-10-22T05:14:07.169Z,7.97
2022-10-22T05:16:34.969Z,8.30
2022-10-22T05:19:02.815Z,8.30
2022-10-22T05:21:30.072Z,8.37
2022-10-22T05:23:57.641Z,7.93
2022-10-22T05:26:24.737Z,7.50
2022-10-22T05:28:53.251Z,7.80
2022-10-22T05:31:20.931Z,9.03
2022-10-22T05:33:48.128Z,9.60
2022-10-22T05:36:16.414Z,8.90
2022-10-22T05:38:43.566Z,8.53
2022-10-22T05:41:12.117Z,8.30
2022-10-22T05:43:39.248Z,8.83
2022-10-22T05:46:08.740Z,10.10
2022-10-22T05:48:36.219Z,9.60
2022-10-22T05:51:03.758Z,8.80
2022-10-22T05:53:31.135Z,9.97
2022-10-22T05:56:00.302Z,9.30
2022-10-22T05:58:28.179Z,9.60
2022-10-22T06:00:55.408Z,9.93
2022-10-22T06:03:23.815Z,9.03
2022-10-22T06:05:50.927Z,10.57
2022-10-22T06:08:19.137Z,9.23
2022-10-22T06:10:46.438Z,9.30
2022-10-22T06:13:13.508Z,8.70
2022-10-22T06:15:40.674Z,8.70
2022-10-22T06:18:07.746Z,9.47
2022-10-22T06:20:36.191Z,9.07
2022-10-22T06:23:03.287Z,9.20
2022-10-22T06:25:30.389Z,8.90
2022-10-22T06:27:57.450Z,9.07
2022-10-22T06:30:24.577Z,9.50
2022-10-22T06:32:51.700Z,9.57
2022-10-22T06:35:18.839Z,10.00
2022-10-22T06:37:47.271Z,9.80
2022-10-22T06:40:14.597Z,9.30
2022-10-22T06:42:41.954Z,8.67
2022-10-22T06:45:10.195Z,8.03
2022-10-22T06:47:37.260Z,8.47
2022-10-22T06:50:05.130Z,7.80
2022-10-22T06:52:32.286Z,8.50
2022-10-22T06:55:00.716Z,7.33
2022-10-22T06:57:27.829Z,7.67
2022-10-22T06:59:54.888Z,8.13
2022-10-22T07:02:22.240Z,7.57
2022-10-22T07:04:49.300Z,7.27
2022-10-22T07:07:16.445Z,7.33
2022-10-22T07:09:43.567Z,6.90
2022-10-22T07:12:11.997Z,8.07
2022-10-22T07:14:39.073Z,7.30
2022-10-22T07:17:06.195Z,7.53
2022-10-22T07:19:33.313Z,6.73
2022-10-22T07:22:00.464Z,6.40
2022-10-22T07:24:27.698Z,6.70
2022-10-22T07:26:54.895Z,5.40
2022-10-22T07:29:23.353Z,5.80
2022-10-22T07:31:50.427Z,4.80
2022-10-22T07:34:17.548Z,5.13
2022-10-22T07:36:44.724Z,5.60
2022-10-22T07:39:11.860Z,4.50
2022-10-22T07:41:38.928Z,5.27
2022-10-22T07:44:05.996Z,4.47
2022-10-22T07:46:34.437Z,4.00
2022-10-22T07:49:01.660Z,4.97
2022-10-22T07:51:28.721Z,4.63
2022-10-22T07:53:55.821Z,4.43
2022-10-22T07:56:22.905Z,4.20
2022-10-22T07:58:50.079Z,4.90
2022-10-22T08:01:17.350Z,5.10
2022-10-22T08:03:45.930Z,5.30
2022-10-22T08:06:13.723Z,3.80
2022-10-22T08:08:41.176Z,4.07
2022-10-22T08:11:08.405Z,4.37
2022-10-22T08:13:35.762Z,4.60
2022-10-22T08:16:02.917Z,4.60
2022-10-22T08:18:30.304Z,4.40
2022-10-22T08:20:59.011Z,4.10
2022-10-22T08:23:28.566Z,4.40
2022-10-22T08:25:56.456Z,4.20
2022-10-22T08:28:23.563Z,4.10
2022-10-22T08:30:50.637Z,4.80
2022-10-22T08:33:17.778Z,3.40
2022-10-22T08:35:48.242Z,4.20
2022-10-22T08:38:16.889Z,2.97
2022-10-22T08:40:45.085Z,2.90
2022-10-22T08:43:39.672Z,2.77
2022-10-22T08:46:31.037Z,3.50
2022-10-22T08:48:59.302Z,3.20
2022-10-22T08:51:27.824Z,2.83
2022-10-22T08:54:07.526Z,2.70
2022-10-22T08:56:36.147Z,2.70
2022-10-22T08:59:04.951Z,3.13
2022-10-22T09:01:34.514Z,3.10
2022-10-22T09:04:05.536Z,3.07
2022-10-22T09:06:33.359Z,3.20
2022-10-22T09:09:01.731Z,3.43
2022-10-22T09:11:32.618Z,3.27
2022-10-22T09:14:00.209Z,2.93
2022-10-22T09:16:33.180Z,2.30
2022-10-22T09:19:06.613Z,3.10
2022-10-22T09:21:37.603Z,2.57
2022-10-22T09:24:06.649Z,2.73
2022-10-22T09:26:37.648Z,3.13
2022-10-22T09:29:05.466Z,2.73
2022-10-22T09:31:33.352Z,2.33
2022-10-22T09:34:00.454Z,2.60
2022-10-22T09:36:29.742Z,2.53
2022-10-22T09:38:56.797Z,2.30
2022-10-22T09:41:25.624Z,2.40
2022-10-22T09:43:54.027Z,3.50
2022-10-22T09:46:22.340Z,2.77
2022-10-22T09:48:50.788Z,2.13
2022-10-22T09:51:19.508Z,3.13
2022-10-22T09:53:47.621Z,2.70
2022-10-22T09:56:19.263Z,2.67
2022-10-22T09:58:47.468Z,2.83
2022-10-22T10:01:18.956Z,2.27
2022-10-22T10:03:46.042Z,2.90
2022-10-22T10:06:17.846Z,2.53
2022-10-22T10:08:45.068Z,3.20
2022-10-22T10:11:17.081Z,2.30
2022-10-22T10:13:47.497Z,2.03
2022-10-22T10:16:27.614Z,2.80
2022-10-22T10:19:00.738Z,3.03
2022-10-22T10:21:31.672Z,2.70
2022-10-22T10:24:02.839Z,2.43
2022-10-22T10:26:32.821Z,1.70
2022-10-22T10:29:06.042Z,2.70
2022-10-22T10:31:39.714Z,2.33
2022-10-22T10:34:11.113Z,2.70
2022-10-22T10:36:40.575Z,2.60
2022-10-22T10:39:09.470Z,2.93
2022-10-22T10:41:43.326Z,2.00
2022-10-22T10:44:35.145Z,1.80
2022-10-22T10:47:08.585Z,1.83
2022-10-22T10:49:36.361Z,2.07
2022-10-22T10:52:07.429Z,1.73
2022-10-22T10:57:14.104Z,2.13
2022-10-22T10:59:50.437Z,1.80
2022-10-22T11:02:44.074Z,1.70
2022-10-22T11:05:15.494Z,2.07
2022-10-22T11:07:45.773Z,2.03
2022-10-22T11:10:20.251Z,1.53
2022-10-22T11:12:49.081Z,1.67
2022-10-22T11:15:20.324Z,1.57
2022-10-22T11:17:48.877Z,1.83
2022-10-22T11:20:17.929Z,1.77
2022-10-22T11:23:17.072Z,2.20
2022-10-22T11:25:38.971Z,1.80
2022-10-22T11:28:11.438Z,2.23
2022-10-22T11:30:39.491Z,2.73
2022-10-22T11:33:10.758Z,1.70
2022-10-22T11:35:39.937Z,1.60
2022-10-22T11:38:08.114Z,2.00
2022-10-22T11:40:36.590Z,1.50
2022-10-22T11:43:05.046Z,1.60
2022-10-22T11:45:34.726Z,1.50
2022-10-22T11:48:07.120Z,1.87
2022-10-22T11:50:51.770Z,1.67
2022-10-22T11:53:20.452Z,1.43
2022-10-22T11:55:48.447Z,1.47
2022-10-22T11:58:29.455Z,1.20
2022-10-22T12:00:57.429Z,1.57
2022-10-22T12:03:25.630Z,1.90
2022-10-22T12:06:06.772Z,1.60
2022-10-22T12:08:34.665Z,1.20
2022-10-22T12:11:06.836Z,1.37
2022-10-22T12:13:51.875Z,1.50
2022-10-22T12:16:32.051Z,1.73
2022-10-22T12:19:12.687Z,1.60
2022-10-22T12:21:42.556Z,1.80
2022-10-22T12:24:13.551Z,1.80
2022-10-22T12:26:40.630Z,1.30
2022-10-22T12:29:11.668Z,1.53
2022-10-22T12:31:39.694Z,1.20
2022-10-22T12:34:06.986Z,1.50
2022-10-22T12:36:35.609Z,1.40
2022-10-22T12:39:04.947Z,1.43
2022-10-22T12:41:32.626Z,2.43
2022-10-22T12:44:00.043Z,1.53
2022-10-22T12:46:27.759Z,1.90
2022-10-22T12:48:54.945Z,1.50
2022-10-22T12:51:22.448Z,1.43
2022-10-22T12:53:51.168Z,1.90
2022-10-22T12:56:22.312Z,1.60
2022-10-22T12:58:52.270Z,1.20
2022-10-22T13:01:19.576Z,1.27
2022-10-22T13:03:48.174Z,1.50
2022-10-22T13:06:23.214Z,1.60
2022-10-22T13:08:56.536Z,1.30
2022-10-22T13:11:25.004Z,1.70
2022-10-22T13:13:52.122Z,1.73
2022-10-22T13:16:21.311Z,1.27
2022-10-22T13:18:49.012Z,1.50
2022-10-22T13:21:23.198Z,1.40
2022-10-22T13:23:53.058Z,2.20
2022-10-22T13:26:20.417Z,1.57
2022-10-22T13:28:52.370Z,1.43
2022-10-22T13:31:20.768Z,1.60
2022-10-22T13:33:51.941Z,1.40
2022-10-22T13:36:19.351Z,1.67
2022-10-22T13:38:46.491Z,2.00
2022-10-22T13:41:20.662Z,1.57
2022-10-22T13:43:47.913Z,1.37
2022-10-22T13:46:16.595Z,1.10
2022-10-22T13:48:44.503Z,1.37
2022-10-22T13:51:15.002Z,1.20
2022-10-22T13:53:42.617Z,1.23
2022-10-22T13:56:12.731Z,1.53
2022-10-22T13:58:39.820Z,1.20
2022-10-22T14:01:10.044Z,1.50
2022-10-22T14:03:38.649Z,1.60
2022-10-22T14:06:08.165Z,1.30
2022-10-22T14:08:35.296Z,1.53
2022-10-22T14:11:02.461Z,1.50
2022-10-22T14:13:29.544Z,1.70
2022-10-22T14:15:56.731Z,1.60
2022-10-22T14:18:25.501Z,1.97
2022-10-22T14:20:54.828Z,1.63
2022-10-22T14:23:22.427Z,2.10
2022-10-22T14:25:49.773Z,1.40
2022-10-22T14:28:17.419Z,1.40
2022-10-22T14:30:44.994Z,1.70
2022-10-22T14:33:14.626Z,1.50
2022-10-22T14:35:41.774Z,1.63
2022-10-22T14:38:10.240Z,2.30
2022-10-22T14:40:37.643Z,3.07
2022-10-22T14:43:05.170Z,2.47
2022-10-22T14:45:32.275Z,2.37
2022-10-22T14:47:59.385Z,2.40
2022-10-22T14:50:26.457Z,2.90
2022-10-22T14:52:53.535Z,2.17
2022-10-22T14:55:22.000Z,4.57
2022-10-22T14:57:49.069Z,3.10
2022-10-22T15:00:17.218Z,3.27
2022-10-22T15:02:44.778Z,3.10
2022-10-22T15:05:11.985Z,2.93
2022-10-22T15:07:39.497Z,2.70
2022-10-22T15:10:07.815Z,2.40
2022-10-22T15:12:36.447Z,2.83
2022-10-22T15:15:04.021Z,3.30
2022-10-22T15:17:31.116Z,2.53
2022-10-22T15:19:58.263Z,3.03
2022-10-22T15:22:25.612Z,2.30
2022-10-22T15:24:52.702Z,2.03
2022-10-22T15:27:20.055Z,2.50
2022-10-22T15:29:48.502Z,2.40
2022-10-22T15:32:15.686Z,1.97
2022-10-22T15:34:42.748Z,2.20
2022-10-22T15:37:11.222Z,2.53
2022-10-22T15:39:39.984Z,2.30
2022-10-22T15:42:07.180Z,1.90
2022-10-22T15:44:34.254Z,3.07
2022-10-22T15:47:02.977Z,3.90
2022-10-22T15:49:30.120Z,2.10
2022-10-22T15:51:57.220Z,1.60
2022-10-22T15:54:25.367Z,2.43
2022-10-22T15:56:52.729Z,2.40
2022-10-22T15:59:19.859Z,2.70
2022-10-22T16:01:47.187Z,2.90
2022-10-22T16:04:15.675Z,3.33
2022-10-22T16:06:43.487Z,2.57
2022-10-22T16:09:11.997Z,2.07
2022-10-22T16:11:39.578Z,2.20
2022-10-22T16:14:07.123Z,1.70
2022-10-22T16:16:35.512Z,2.10
2022-10-22T16:19:02.833Z,1.60
2022-10-22T16:21:31.309Z,1.60
2022-10-22T16:24:05.915Z,1.90
2022-10-22T16:26:34.042Z,1.90
2022-10-22T16:29:01.169Z,1.67
2022-10-22T16:31:28.287Z,2.03
2022-10-22T16:33:55.409Z,2.07
2022-10-22T16:36:22.882Z,1.70
2022-10-22T16:38:51.326Z,1.57
2022-10-22T16:41:19.194Z,1.63
2022-10-22T16:43:47.078Z,2.17
2022-10-22T16:46:14.551Z,1.87
2022-10-22T16:48:44.996Z,1.60
2022-10-22T16:51:13.810Z,1.83
2022-10-22T16:53:41.168Z,2.30
2022-10-22T16:56:10.584Z,1.90
2022-10-22T16:58:37.717Z,2.47
2022-10-22T17:01:06.505Z,1.93
2022-10-22T17:03:33.602Z,1.80
2022-10-22T17:06:01.033Z,2.70
2022-10-22T17:08:28.098Z,2.40
2022-10-22T17:10:55.199Z,2.30
2022-10-22T17:13:23.646Z,2.10
2022-10-22T17:15:50.753Z,2.20
2022-10-22T17:18:17.860Z,2.73
2022-10-22T17:20:44.952Z,2.50
2022-10-22T17:23:12.058Z,2.10
2022-10-22T17:25:42.088Z,2.90
2022-10-22T17:28:09.272Z,2.30
2022-10-22T17:30:38.013Z,2.37
2022-10-22T17:33:05.423Z,2.40
2022-10-22T17:35:32.561Z,2.70
2022-10-22T17:37:59.697Z,2.90
2022-10-22T17:40:26.810Z,2.63
2022-10-22T17:42:54.015Z,3.03
2022-10-22T17:45:21.108Z,2.70
2022-10-22T17:47:49.526Z,3.10
2022-10-22T17:50:16.685Z,2.53
2022-10-22T17:52:43.991Z,3.23
2022-10-22T17:55:12.657Z,2.73
2022-10-22T17:57:39.922Z,3.67
2022-10-22T18:00:07.595Z,2.97
2022-10-22T18:02:35.231Z,2.80
2022-10-22T18:05:03.777Z,3.27
2022-10-22T18:07:30.865Z,2.63
2022-10-22T18:09:57.971Z,2.80
2022-10-22T18:12:25.148Z,3.20
2022-10-22T18:14:52.255Z,3.10
2022-10-22T18:17:19.337Z,2.80
2022-10-22T18:19:46.430Z,3.73
2022-10-22T18:22:14.885Z,3.80
2022-10-22T18:24:41.999Z,3.60
2022-10-22T18:27:09.101Z,4.20
2022-10-22T18:29:36.189Z,4.43
2022-10-22T18:32:03.276Z,4.50
2022-10-22T18:34:30.375Z,4.23
2022-10-22T18:36:57.461Z,4.33
2022-10-22T18:39:25.897Z,4.00
2022-10-22T18:41:52.959Z,4.67
2022-10-22T18:44:20.053Z,4.07
2022-10-22T18:46:47.117Z,4.33
2022-10-22T18:49:16.979Z,4.30
2022-10-22T18:51:44.432Z,4.43
2022-10-22T18:54:22.835Z,4.90
2022-10-22T18:56:51.959Z,4.10
2022-10-22T18:59:20.242Z,4.30
2022-10-22T19:01:47.483Z,4.10
2022-10-22T19:04:14.616Z,4.43
2022-10-22T19:06:45.387Z,4.80
2022-10-22T19:09:13.058Z,4.77
2022-10-22T19:11:40.165Z,5.33
2022-10-22T19:14:08.697Z,5.10
2022-10-22T19:16:35.865Z,4.87
2022-10-22T19:19:04.257Z,4.70
2022-10-22T19:21:31.551Z,4.30
2022-10-22T19:23:59.635Z,5.40
2022-10-22T19:26:27.170Z,5.13
2022-10-22T19:28:54.675Z,4.87
2022-10-22T19:31:24.174Z,4.20
2022-10-22T19:33:51.731Z,4.67
2022-10-22T19:36:19.349Z,4.70
2022-10-22T19:38:47.332Z,4.97
2022-10-22T19:41:15.936Z,5.40
2022-10-22T19:43:43.588Z,5.37
2022-10-22T19:46:11.032Z,5.03
2022-10-22T19:48:39.543Z,5.50
2022-10-22T19:51:07.845Z,5.37
2022-10-22T19:53:35.521Z,5.30
2022-10-22T19:56:02.901Z,5.30
2022-10-22T19:58:30.011Z,4.87
2022-10-22T20:00:57.113Z,5.17
2022-10-22T20:03:24.219Z,5.50
2022-10-22T20:05:52.683Z,5.70
2022-10-22T20:08:19.749Z,5.83
2022-10-22T20:10:48.680Z,5.93
2022-10-22T20:13:15.780Z,5.97
2022-10-22T20:15:43.031Z,4.60
2022-10-22T20:18:10.120Z,5.10
2022-10-22T20:20:38.117Z,5.97
2022-10-22T20:23:06.580Z,5.00
2022-10-22T20:25:33.636Z,4.50
2022-10-22T20:28:00.720Z,4.77
2022-10-22T20:30:27.812Z,5.33
2022-10-22T20:32:54.874Z,4.50
2022-10-22T20:35:21.980Z,3.83
2022-10-22T20:37:49.060Z,4.70
2022-10-22T20:40:17.622Z,4.90
2022-10-22T20:42:44.834Z,5.13
2022-10-22T20:45:12.053Z,5.47
2022-10-22T20:47:51.071Z,4.70
2022-10-22T20:50:26.294Z,4.60
2022-10-22T20:52:53.501Z,6.20
2022-10-22T20:55:21.937Z,5.17
2022-10-22T20:57:49.142Z,4.53
2022-10-22T21:00:16.661Z,4.13
2022-10-22T21:02:43.760Z,4.23
2022-10-22T21:05:10.927Z,5.00
2022-10-22T21:07:37.998Z,4.60
2022-10-22T21:10:05.533Z,4.30
2022-10-22T21:12:34.019Z,4.10
2022-10-22T21:15:01.090Z,4.67
2022-10-22T21:17:28.219Z,4.60
2022-10-22T21:19:55.310Z,4.83
2022-10-22T21:22:22.396Z,5.10
2022-10-22T21:24:49.488Z,6.00
2022-10-22T21:27:16.571Z,4.53
2022-10-22T21:29:45.002Z,4.40
2022-10-22T21:32:12.141Z,4.57
2022-10-22T21:34:39.264Z,5.27
2022-10-22T21:37:06.352Z,4.50
2022-10-22T21:39:34.309Z,4.40
2022-10-22T21:42:02.666Z,3.90
2022-10-22T21:44:29.857Z,4.70
2022-10-22T21:46:58.296Z,5.00
2022-10-22T21:49:25.402Z,4.33
2022-10-22T21:51:52.488Z,4.57
2022-10-22T21:54:19.591Z,4.70
2022-10-22T21:56:46.657Z,5.10
2022-10-22T21:59:13.749Z,3.77
2022-10-22T22:01:40.909Z,4.50
2022-10-22T22:04:09.339Z,3.90
2022-10-22T22:06:36.491Z,3.80
2022-10-22T22:09:04.449Z,3.87
2022-10-22T22:11:31.880Z,3.93
2022-10-22T22:13:59.005Z,4.10
2022-10-22T22:16:28.455Z,4.10
2022-10-22T22:18:56.421Z,4.03
2022-10-22T22:21:25.200Z,3.80
2022-10-22T22:23:52.282Z,3.90
2022-10-22T22:26:21.360Z,4.57
2022-10-22T22:28:51.016Z,3.50
2022-10-22T22:31:19.265Z,4.00
2022-10-22T22:33:46.606Z,3.97
2022-10-22T22:36:13.721Z,4.03
2022-10-22T22:38:42.188Z,3.60
2022-10-22T22:41:09.668Z,4.07
2022-10-22T22:43:37.096Z,4.10
2022-10-22T22:46:04.984Z,4.57
2022-10-22T22:48:32.088Z,4.20
2022-10-22T22:50:59.461Z,3.47
2022-10-22T22:53:27.050Z,4.37
2022-10-22T22:56:04.090Z,4.50
2022-10-22T22:58:31.218Z,4.17
2022-10-22T23:01:08.831Z,3.93
2022-10-22T23:03:35.968Z,3.73
2022-10-22T23:06:03.025Z,3.80
2022-10-22T23:08:30.170Z,3.87
2022-10-22T23:11:01.581Z,4.30
2022-10-22T23:13:30.028Z,4.50
2022-10-22T23:15:57.106Z,3.60
2022-10-22T23:18:24.219Z,4.10
2022-10-22T23:20:51.324Z,4.37
2022-10-22T23:23:18.394Z,4.33
2022-10-22T23:25:45.563Z,3.50
2022-10-22T23:28:12.727Z,4.27
2022-10-22T23:30:43.660Z,3.83
2022-10-22T23:33:11.128Z,4.00
2022-10-22T23:35:39.883Z,3.97
2022-10-22T23:38:07.007Z,4.07
2022-10-22T23:40:34.170Z,3.97
2022-10-22T23:43:01.368Z,3.83
2022-10-22T23:45:28.488Z,3.70
2022-10-22T23:47:56.886Z,4.77
2022-10-22T23:50:23.989Z,4.53
2022-10-22T23:52:51.166Z,4.40
2022-10-22T23:55:18.667Z,3.53
2022-10-22T23:57:45.903Z,3.70
